createdAt,value
2023-05-21T00:00:08.524Z,17.22
2023-05-21T00:02:36.912Z,17.07
2023-05-21T00:05:05.535Z,17.02
2023-05-21T00:07:34.434Z,16.99
2023-05-21T00:10:02.828Z,17.16
2023-05-21T00:12:32.369Z,17.12
2023-05-21T00:15:01.733Z,16.87
2023-05-21T00:17:31.584Z,16.91
2023-05-21T00:20:00.292Z,16.88
2023-05-21T00:22:28.775Z,16.86
2023-05-21T00:24:57.063Z,16.84
2023-05-21T00:27:25.383Z,16.99
2023-05-21T00:29:53.750Z,17.05
2023-05-21T00:32:22.112Z,17.23
2023-05-21T00:34:51.936Z,17.25
2023-05-21T00:37:20.872Z,17.23
2023-05-21T00:39:49.243Z,17.15
2023-05-21T00:42:18.373Z,17.07
2023-05-21T00:44:46.855Z,17.02
2023-05-21T00:47:18.446Z,16.90
2023-05-21T00:49:47.427Z,16.63
2023-05-21T00:52:20.459Z,16.79
2023-05-21T00:54:51.064Z,17.00
2023-05-21T00:57:20.855Z,16.99
2023-05-21T00:59:51.027Z,16.81
2023-05-21T01:02:19.728Z,16.83
2023-05-21T01:04:48.026Z,16.90
2023-05-21T01:07:18.708Z,17.05
2023-05-21T01:09:47.264Z,17.12
2023-05-21T01:12:16.431Z,16.97
2023-05-21T01:14:45.363Z,16.64
2023-05-21T01:17:14.278Z,16.78
2023-05-21T01:19:44.773Z,16.83
2023-05-21T01:22:15.455Z,16.79
2023-05-21T01:24:47.823Z,16.84
2023-05-21T01:27:16.263Z,17.08
2023-05-21T01:29:44.745Z,17.14
2023-05-21T01:32:23.700Z,17.07
2023-05-21T01:35:01.383Z,16.97
2023-05-21T01:37:36.114Z,16.94
2023-05-21T01:40:12.028Z,16.87
2023-05-21T01:42:44.613Z,16.96
2023-05-21T01:45:14.705Z,16.95
2023-05-21T01:47:46.431Z,16.91
2023-05-21T01:50:15.926Z,17.12
2023-05-21T01:52:51.595Z,17.25
2023-05-21T01:55:24.907Z,17.26
2023-05-21T01:57:54.142Z,17.05
2023-05-21T02:00:23.178Z,17.11
2023-05-21T02:02:52.155Z,16.64
2023-05-21T02:05:20.612Z,17.02
2023-05-21T02:07:49.911Z,17.08
2023-05-21T02:10:18.181Z,17.20
2023-05-21T02:12:48.222Z,17.24
2023-05-21T02:15:18.207Z,16.92
2023-05-21T02:17:47.020Z,16.94
2023-05-21T02:20:15.836Z,16.97
2023-05-21T02:22:47.309Z,16.96
2023-05-21T02:25:18.497Z,17.02
2023-05-21T02:27:48.287Z,16.98
2023-05-21T02:30:17.138Z,17.04
2023-05-21T02:32:45.649Z,16.92
2023-05-21T02:35:14.747Z,16.57
2023-05-21T02:37:44.338Z,16.68
2023-05-21T02:40:13.681Z,16.67
2023-05-21T02:42:42.667Z,16.92
2023-05-21T02:45:13.863Z,16.93
2023-05-21T02:47:42.195Z,16.89
2023-05-21T02:50:11.133Z,16.84
2023-05-21T02:52:39.593Z,17.13
2023-05-21T02:55:09.005Z,17.16
2023-05-21T02:57:37.272Z,17.04
2023-05-21T03:00:08.599Z,16.96
2023-05-21T03:02:38.634Z,16.94
2023-05-21T03:05:08.159Z,16.98
2023-05-21T03:07:36.533Z,16.85
2023-05-21T03:10:05.391Z,16.98
2023-05-21T03:12:33.724Z,16.87
2023-05-21T03:15:01.973Z,16.84
2023-05-21T03:17:30.306Z,16.94
2023-05-21T03:20:00.161Z,16.91
2023-05-21T03:22:28.687Z,16.86
2023-05-21T03:24:58.401Z,17.25
2023-05-21T03:27:27.242Z,17.29
2023-05-21T03:29:56.256Z,17.25
2023-05-21T03:32:24.614Z,17.13
2023-05-21T03:34:53.098Z,16.95
2023-05-21T03:37:22.807Z,16.80
2023-05-21T03:39:51.171Z,17.00
2023-05-21T03:42:19.540Z,16.95
2023-05-21T03:44:47.943Z,17.27
2023-05-21T03:47:16.401Z,17.12
2023-05-21T03:49:44.749Z,16.99
2023-05-21T03:52:13.020Z,16.90
2023-05-21T03:54:42.692Z,17.06
2023-05-21T03:57:11.184Z,17.14
2023-05-21T03:59:39.516Z,17.29
2023-05-21T04:02:07.974Z,17.40
2023-05-21T04:04:37.287Z,17.23
2023-05-21T04:07:05.915Z,17.12
2023-05-21T04:09:36.526Z,16.95
2023-05-21T04:12:08.062Z,16.85
2023-05-21T04:14:37.224Z,16.89
2023-05-21T04:17:06.074Z,16.99
2023-05-21T04:19:35.407Z,16.63
2023-05-21T04:22:03.879Z,17.25
2023-05-21T04:24:32.502Z,17.29
2023-05-21T04:27:01.717Z,17.41
2023-05-21T04:29:31.614Z,17.63
2023-05-21T04:31:59.933Z,17.66
2023-05-21T04:34:28.300Z,17.50
2023-05-21T04:36:56.984Z,17.51
2023-05-21T04:39:25.368Z,17.81
2023-05-21T04:41:54.803Z,17.93
2023-05-21T04:44:23.860Z,17.74
2023-05-21T04:46:55.011Z,17.69
2023-05-21T04:49:23.381Z,17.88
2023-05-21T04:51:51.611Z,17.69
2023-05-21T04:54:20.400Z,17.52
2023-05-21T04:56:48.687Z,17.75
2023-05-21T04:59:17.654Z,17.80
2023-05-21T05:01:45.986Z,18.04
2023-05-21T05:04:15.703Z,17.94
2023-05-21T05:06:43.988Z,18.52
2023-05-21T05:09:12.360Z,17.89
2023-05-21T05:11:40.800Z,18.36
2023-05-21T05:14:09.443Z,18.05
2023-05-21T05:16:38.419Z,17.99
2023-05-21T05:19:06.875Z,18.21
2023-05-21T05:21:36.509Z,18.42
2023-05-21T05:24:04.976Z,18.49
2023-05-21T05:26:33.321Z,18.27
2023-05-21T05:29:01.790Z,18.44
2023-05-21T05:31:30.212Z,18.25
2023-05-21T05:33:58.703Z,18.51
2023-05-21T05:36:27.352Z,18.41
2023-05-21T05:38:57.116Z,18.30
2023-05-21T05:41:25.356Z,18.55
2023-05-21T05:43:53.661Z,18.00
2023-05-21T05:46:21.994Z,18.03
2023-05-21T05:48:50.476Z,18.21
2023-05-21T05:51:18.805Z,17.80
2023-05-21T05:53:47.072Z,17.68
2023-05-21T05:56:17.317Z,17.72
2023-05-21T05:58:45.655Z,17.67
2023-05-21T06:01:14.434Z,17.80
2023-05-21T06:03:42.832Z,17.89
2023-05-21T06:06:11.259Z,18.03
2023-05-21T06:08:40.733Z,17.53
2023-05-21T06:11:09.694Z,17.44
2023-05-21T06:13:39.450Z,17.21
2023-05-21T06:16:10.195Z,17.70
2023-05-21T06:18:38.771Z,17.81
2023-05-21T06:21:07.196Z,17.63
2023-05-21T06:23:36.934Z,17.83
2023-05-21T06:26:05.684Z,16.83
2023-05-21T06:28:34.185Z,17.76
2023-05-21T06:31:03.873Z,18.27
2023-05-21T06:33:32.260Z,18.38
2023-05-21T06:36:00.833Z,18.46
2023-05-21T06:38:29.182Z,18.42
2023-05-21T06:40:58.642Z,18.44
2023-05-21T06:43:28.815Z,18.22
2023-05-21T06:45:57.234Z,18.03
2023-05-21T06:48:27.053Z,18.25
2023-05-21T06:50:55.409Z,18.27
2023-05-21T06:53:23.792Z,18.00
2023-05-21T06:55:54.037Z,18.18
2023-05-21T06:58:22.940Z,18.23
2023-05-21T07:00:51.480Z,18.13
2023-05-21T07:03:20.011Z,18.34
2023-05-21T07:05:49.948Z,18.47
2023-05-21T07:08:20.076Z,18.56
2023-05-21T07:10:48.335Z,18.49
2023-05-21T07:13:16.920Z,18.46
2023-05-21T07:15:45.236Z,18.17
2023-05-21T07:18:13.782Z,18.26
2023-05-21T07:20:42.198Z,18.10
2023-05-21T07:23:12.063Z,18.14
2023-05-21T07:25:40.442Z,18.28
2023-05-21T07:28:08.846Z,18.42
2023-05-21T07:30:37.243Z,18.19
2023-05-21T07:33:05.890Z,17.81
2023-05-21T07:35:34.424Z,18.46
2023-05-21T07:38:03.998Z,18.61
2023-05-21T07:40:33.847Z,18.54
2023-05-21T07:43:02.261Z,18.66
2023-05-21T07:45:30.825Z,18.59
2023-05-21T07:47:59.225Z,18.65
2023-05-21T07:50:27.686Z,18.56
2023-05-21T07:52:56.062Z,18.64
2023-05-21T07:55:24.418Z,18.21
2023-05-21T07:57:54.210Z,18.15
2023-05-21T08:00:26.011Z,18.26
2023-05-21T08:02:54.452Z,18.21
2023-05-21T08:05:24.511Z,18.23
2023-05-21T08:07:52.938Z,18.24
2023-05-21T08:10:21.366Z,18.31
2023-05-21T08:12:49.733Z,17.90
2023-05-21T08:15:19.421Z,17.75
2023-05-21T08:17:47.710Z,18.03
2023-05-21T08:20:16.381Z,18.17
2023-05-21T08:22:44.760Z,18.12
2023-05-21T08:25:13.143Z,18.02
2023-05-21T08:27:41.426Z,18.00
2023-05-21T08:30:11.810Z,18.07
2023-05-21T08:32:41.677Z,18.17
2023-05-21T08:35:10.949Z,17.79
2023-05-21T08:37:39.242Z,17.96
2023-05-21T08:40:09.331Z,17.73
2023-05-21T08:42:41.820Z,17.49
2023-05-21T08:45:13.343Z,16.78
2023-05-21T08:47:44.985Z,16.84
2023-05-21T08:50:15.359Z,15.78
2023-05-21T08:52:43.935Z,16.67
2023-05-21T08:55:12.364Z,16.38
2023-05-21T08:57:45.302Z,16.29
2023-05-21T09:00:14.604Z,16.14
2023-05-21T09:02:46.600Z,16.08
2023-05-21T09:05:16.651Z,15.83
2023-05-21T09:07:52.286Z,16.12
2023-05-21T09:10:26.111Z,16.07
2023-05-21T09:12:55.210Z,15.57
2023-05-21T09:15:23.987Z,15.95
2023-05-21T09:17:53.906Z,15.80
2023-05-21T09:20:26.753Z,16.70
2023-05-21T09:22:55.900Z,16.56
2023-05-21T09:25:28.297Z,16.38
2023-05-21T09:27:57.761Z,16.67
2023-05-21T09:30:28.805Z,16.58
2023-05-21T09:33:01.781Z,16.33
2023-05-21T09:35:30.422Z,16.06
2023-05-21T09:37:58.784Z,16.13
2023-05-21T09:40:27.349Z,15.79
2023-05-21T09:42:56.505Z,16.13
2023-05-21T09:45:26.797Z,16.17
2023-05-21T09:47:56.308Z,15.82
2023-05-21T09:50:28.099Z,16.02
2023-05-21T09:52:58.156Z,15.76
2023-05-21T09:55:27.819Z,16.01
2023-05-21T09:57:56.133Z,15.79
2023-05-21T10:00:27.485Z,15.80
2023-05-21T10:02:56.975Z,15.60
2023-05-21T10:05:28.346Z,15.12
2023-05-21T10:08:01.311Z,15.41
2023-05-21T10:10:30.865Z,15.47
2023-05-21T10:13:02.529Z,15.65
2023-05-21T10:15:33.769Z,15.71
2023-05-21T10:18:04.897Z,15.67
2023-05-21T10:20:34.982Z,15.78
2023-05-21T10:23:04.264Z,15.86
2023-05-21T10:25:33.197Z,16.12
2023-05-21T10:28:01.834Z,16.10
2023-05-21T10:30:31.273Z,16.40
2023-05-21T10:33:01.193Z,16.46
2023-05-21T10:35:30.997Z,16.51
2023-05-21T10:38:02.785Z,16.51
2023-05-21T10:40:31.632Z,16.14
2023-05-21T10:43:21.053Z,16.07
2023-05-21T10:46:03.545Z,16.07
2023-05-21T10:48:49.771Z,16.02
2023-05-21T10:51:25.279Z,16.15
2023-05-21T10:54:17.998Z,16.61
2023-05-21T10:56:55.852Z,16.71
2023-05-21T10:59:37.905Z,16.72
2023-05-21T11:02:08.240Z,16.49
2023-05-21T11:04:40.196Z,16.65
2023-05-21T11:07:08.684Z,16.75
2023-05-21T11:09:39.655Z,16.67
2023-05-21T11:12:09.972Z,16.67
2023-05-21T11:14:40.644Z,16.98
2023-05-21T11:17:14.165Z,16.80
2023-05-21T11:19:43.996Z,16.46
2023-05-21T11:22:23.026Z,16.69
2023-05-21T11:24:53.759Z,16.29
2023-05-21T11:27:43.558Z,16.81
2023-05-21T11:30:16.823Z,16.87
2023-05-21T11:33:17.915Z,16.85
2023-05-21T11:35:59.414Z,16.90
2023-05-21T11:38:31.204Z,16.79
2023-05-21T11:41:05.187Z,17.28
2023-05-21T11:43:33.608Z,17.13
2023-05-21T11:46:02.425Z,17.25
2023-05-21T11:48:32.764Z,17.35
2023-05-21T11:51:02.014Z,17.17
2023-05-21T11:53:31.490Z,17.41
2023-05-21T11:56:00.500Z,17.38
2023-05-21T11:58:32.811Z,17.24
2023-05-21T12:01:01.085Z,17.32
2023-05-21T12:03:30.727Z,17.18
2023-05-21T12:06:06.840Z,17.21
2023-05-21T12:08:35.991Z,17.70
2023-05-21T12:11:04.479Z,17.48
2023-05-21T12:13:34.242Z,17.61
2023-05-21T12:16:06.488Z,17.78
2023-05-21T12:18:35.310Z,17.62
2023-05-21T12:21:03.874Z,17.80
2023-05-21T12:23:32.638Z,18.05
2023-05-21T12:26:01.118Z,17.99
2023-05-21T12:28:29.992Z,17.75
2023-05-21T12:30:59.786Z,17.62
2023-05-21T12:33:35.634Z,17.85
2023-05-21T12:36:05.742Z,17.74
2023-05-21T12:38:34.084Z,17.80
2023-05-21T12:41:05.510Z,18.04
2023-05-21T12:43:33.910Z,18.02
2023-05-21T12:46:03.710Z,18.03
2023-05-21T12:48:32.092Z,18.19
2023-05-21T12:51:00.681Z,18.13
2023-05-21T12:53:38.706Z,18.24
2023-05-21T12:56:11.543Z,18.40
2023-05-21T12:58:39.969Z,18.06
2023-05-21T13:01:11.110Z,17.92
2023-05-21T13:03:40.536Z,17.73
2023-05-21T13:06:09.263Z,17.65
2023-05-21T13:08:37.642Z,17.55
2023-05-21T13:11:06.256Z,18.20
2023-05-21T13:13:34.603Z,18.12
2023-05-21T13:16:02.984Z,17.80
2023-05-21T13:18:32.762Z,17.19
2023-05-21T13:21:01.088Z,17.80
2023-05-21T13:23:29.399Z,17.70
2023-05-21T13:25:57.752Z,17.70
2023-05-21T13:28:26.089Z,17.73
2023-05-21T13:30:55.186Z,17.95
2023-05-21T13:33:23.574Z,17.88
2023-05-21T13:35:53.346Z,17.94
2023-05-21T13:38:21.693Z,17.75
2023-05-21T13:40:50.054Z,17.58
2023-05-21T13:43:18.330Z,17.73
2023-05-21T13:45:49.812Z,17.59
2023-05-21T13:48:18.479Z,17.63
2023-05-21T13:50:47.206Z,17.64
2023-05-21T13:53:16.943Z,17.50
2023-05-21T13:55:45.215Z,17.64
2023-05-21T13:58:13.505Z,17.68
2023-05-21T14:00:43.277Z,17.64
2023-05-21T14:03:11.795Z,17.75
2023-05-21T14:05:40.100Z,17.95
2023-05-21T14:08:08.387Z,18.14
2023-05-21T14:10:38.444Z,18.14
2023-05-21T14:13:18.480Z,17.86
2023-05-21T14:15:48.665Z,17.98
2023-05-21T14:18:17.064Z,17.84
2023-05-21T14:20:45.486Z,17.89
2023-05-21T14:23:13.826Z,17.93
2023-05-21T14:25:44.243Z,18.03
2023-05-21T14:28:12.547Z,18.14
2023-05-21T14:30:40.945Z,18.26
2023-05-21T14:33:09.294Z,18.35
2023-05-21T14:35:37.902Z,18.42
2023-05-21T14:38:06.414Z,18.58
2023-05-21T14:40:34.652Z,18.70
2023-05-21T14:43:05.784Z,18.67
2023-05-21T14:45:35.719Z,18.71
2023-05-21T14:48:08.562Z,18.84
2023-05-21T14:50:37.310Z,19.19
2023-05-21T14:53:06.630Z,19.50
2023-05-21T14:55:36.942Z,19.45
2023-05-21T14:58:07.834Z,19.30
2023-05-21T15:00:36.945Z,19.52
2023-05-21T15:03:06.227Z,19.40
2023-05-21T15:05:34.900Z,19.25
2023-05-21T15:08:04.564Z,19.59
2023-05-21T15:10:32.861Z,19.75
2023-05-21T15:13:01.186Z,19.83
2023-05-21T15:15:30.999Z,19.75
2023-05-21T15:17:59.391Z,19.74
2023-05-21T15:20:27.735Z,19.34
2023-05-21T15:23:12.358Z,19.24
2023-05-21T15:25:44.922Z,19.43
2023-05-21T15:28:13.860Z,19.58
2023-05-21T15:30:43.883Z,19.53
2023-05-21T15:33:12.768Z,19.64
2023-05-21T15:35:41.601Z,19.53
2023-05-21T15:38:10.394Z,19.17
2023-05-21T15:40:41.476Z,19.10
2023-05-21T15:43:09.887Z,18.81
2023-05-21T15:45:39.014Z,18.95
2023-05-21T15:48:09.292Z,18.93
2023-05-21T15:50:38.277Z,18.87
2023-05-21T15:53:06.611Z,18.87
2023-05-21T15:55:35.247Z,18.46
2023-05-21T15:58:05.059Z,18.55
2023-05-21T16:00:33.334Z,18.55
2023-05-21T16:03:01.850Z,18.80
2023-05-21T16:05:31.622Z,18.87
2023-05-21T16:08:00.604Z,18.72
2023-05-21T16:10:28.867Z,18.67
2023-05-21T16:12:57.657Z,18.46
2023-05-21T16:15:26.239Z,18.25
2023-05-21T16:17:54.595Z,18.45
2023-05-21T16:20:23.031Z,18.59
2023-05-21T16:22:52.784Z,17.53
2023-05-21T16:25:21.241Z,18.54
2023-05-21T16:27:49.876Z,18.52
2023-05-21T16:30:18.648Z,18.45
2023-05-21T16:32:47.010Z,17.83
2023-05-21T16:35:15.349Z,18.11
2023-05-21T16:37:43.796Z,18.23
2023-05-21T16:40:14.562Z,18.51
2023-05-21T16:42:43.566Z,18.46
2023-05-21T16:45:15.859Z,18.59
2023-05-21T16:47:44.134Z,18.22
2023-05-21T16:50:12.622Z,18.29
2023-05-21T16:52:41.106Z,18.17
2023-05-21T16:55:10.223Z,18.36
2023-05-21T16:57:39.968Z,18.35
2023-05-21T17:00:09.577Z,18.17
2023-05-21T17:02:38.029Z,18.53
2023-05-21T17:05:07.188Z,18.29
2023-05-21T17:07:35.650Z,18.34
2023-05-21T17:10:04.047Z,18.35
2023-05-21T17:12:32.352Z,18.18
2023-05-21T17:15:02.184Z,18.38
2023-05-21T17:17:30.573Z,18.23
2023-05-21T17:19:59.036Z,18.53
2023-05-21T17:22:27.496Z,18.63
2023-05-21T17:24:55.798Z,18.27
2023-05-21T17:27:24.268Z,18.42
2023-05-21T17:29:52.839Z,18.49
2023-05-21T17:32:23.192Z,18.58
2023-05-21T17:34:53.163Z,18.54
2023-05-21T17:37:21.462Z,18.34
2023-05-21T17:39:49.798Z,18.67
2023-05-21T17:42:18.878Z,18.29
2023-05-21T17:44:47.279Z,18.02
2023-05-21T17:47:15.573Z,17.88
2023-05-21T17:49:45.214Z,17.97
2023-05-21T17:52:13.903Z,17.53
2023-05-21T17:54:42.460Z,17.87
2023-05-21T17:57:10.915Z,18.04
2023-05-21T17:59:41.704Z,18.06
2023-05-21T18:02:10.566Z,17.82
2023-05-21T18:04:39.221Z,17.75
2023-05-21T18:07:09.092Z,17.66
2023-05-21T18:09:37.615Z,16.97
2023-05-21T18:12:08.097Z,17.56
2023-05-21T18:14:36.653Z,17.60
2023-05-21T18:17:06.106Z,17.57
2023-05-21T18:19:34.771Z,17.24
2023-05-21T18:22:04.612Z,17.45
2023-05-21T18:24:34.413Z,17.27
2023-05-21T18:27:02.846Z,17.13
2023-05-21T18:29:31.421Z,17.21
2023-05-21T18:32:00.020Z,17.19
2023-05-21T18:34:28.499Z,17.15
2023-05-21T18:36:59.016Z,16.88
2023-05-21T18:39:28.212Z,16.87
2023-05-21T18:42:11.965Z,16.68
2023-05-21T18:44:41.774Z,16.77
2023-05-21T18:47:10.675Z,14.54
2023-05-21T18:49:39.182Z,16.37
2023-05-21T18:52:08.175Z,16.65
2023-05-21T18:54:37.118Z,16.69
2023-05-21T18:57:07.411Z,16.82
2023-05-21T18:59:36.474Z,16.98
2023-05-21T19:02:05.888Z,16.70
2023-05-21T19:04:34.587Z,16.48
2023-05-21T19:07:04.195Z,16.39
2023-05-21T19:09:32.831Z,16.30
2023-05-21T19:12:01.803Z,16.59
2023-05-21T19:14:31.654Z,16.79
2023-05-21T19:17:00.026Z,16.80
2023-05-21T19:19:29.494Z,16.46
2023-05-21T19:21:58.478Z,13.92
2023-05-21T19:24:26.862Z,16.56
2023-05-21T19:26:57.765Z,16.50
2023-05-21T19:29:28.242Z,16.32
2023-05-21T19:31:59.426Z,15.24
2023-05-21T19:34:28.501Z,13.70
2023-05-21T19:36:56.813Z,14.19
2023-05-21T19:39:25.454Z,16.49
2023-05-21T19:41:54.122Z,14.75
2023-05-21T19:44:22.739Z,16.72
2023-05-21T19:46:51.816Z,14.36
2023-05-21T19:49:21.669Z,16.00
2023-05-21T19:51:52.195Z,16.38
2023-05-21T19:54:20.615Z,14.19
2023-05-21T19:57:01.180Z,13.87
2023-05-21T19:59:29.640Z,13.56
2023-05-21T20:01:58.190Z,16.75
2023-05-21T20:04:28.062Z,16.45
2023-05-21T20:06:57.293Z,16.51
2023-05-21T20:09:25.719Z,13.55
2023-05-21T20:11:54.052Z,14.55
2023-05-21T20:14:22.669Z,16.56
2023-05-21T20:16:53.996Z,16.83
2023-05-21T20:19:22.735Z,17.15
2023-05-21T20:21:52.588Z,17.42
2023-05-21T20:24:21.014Z,17.14
2023-05-21T20:26:49.277Z,17.16
2023-05-21T20:29:17.854Z,17.01
2023-05-21T20:31:47.036Z,16.98
2023-05-21T20:34:17.783Z,17.17
2023-05-21T20:36:46.997Z,17.03
2023-05-21T20:39:16.770Z,17.02
2023-05-21T20:41:47.117Z,16.92
2023-05-21T20:44:15.490Z,16.78
2023-05-21T20:46:43.968Z,16.23
2023-05-21T20:49:12.452Z,16.63
2023-05-21T20:51:41.424Z,16.50
2023-05-21T20:54:11.042Z,16.50
2023-05-21T20:56:42.850Z,16.68
2023-05-21T20:59:12.142Z,16.64
2023-05-21T21:01:41.424Z,16.68
2023-05-21T21:04:10.054Z,16.72
2023-05-21T21:06:40.494Z,16.52
2023-05-21T21:09:09.072Z,16.67
2023-05-21T21:11:37.358Z,16.56
2023-05-21T21:14:07.268Z,16.75
2023-05-21T21:16:36.788Z,16.90
2023-05-21T21:19:05.382Z,16.91
2023-05-21T21:21:33.728Z,17.10
2023-05-21T21:24:02.001Z,17.06
2023-05-21T21:26:30.336Z,17.03
2023-05-21T21:28:59.629Z,17.17
2023-05-21T21:31:30.299Z,17.14
2023-05-21T21:33:59.052Z,17.15
2023-05-21T21:36:28.949Z,17.29
2023-05-21T21:38:57.322Z,17.13
2023-05-21T21:41:25.975Z,17.17
2023-05-21T21:43:54.246Z,16.86
2023-05-21T21:46:22.653Z,16.95
2023-05-21T21:48:52.464Z,16.95
2023-05-21T21:51:23.211Z,16.92
2023-05-21T21:53:51.899Z,17.02
2023-05-21T21:56:20.332Z,17.44
2023-05-21T21:58:48.635Z,17.37
2023-05-21T22:01:16.977Z,17.50
2023-05-21T22:03:45.372Z,17.50
2023-05-21T22:06:15.093Z,17.48
2023-05-21T22:08:43.532Z,17.41
2023-05-21T22:11:12.223Z,17.43
2023-05-21T22:13:41.730Z,17.18
2023-05-21T22:16:11.998Z,17.14
2023-05-21T22:18:42.004Z,17.20
2023-05-21T22:21:11.096Z,17.41
2023-05-21T22:23:41.319Z,17.50
2023-05-21T22:26:10.708Z,17.41
2023-05-21T22:28:39.105Z,17.31
2023-05-21T22:31:07.623Z,17.01
2023-05-21T22:33:36.771Z,17.17
2023-05-21T22:36:05.419Z,17.17
2023-05-21T22:38:33.968Z,17.45
2023-05-21T22:41:03.880Z,17.37
2023-05-21T22:43:32.309Z,17.47
2023-05-21T22:46:01.930Z,17.38
2023-05-21T22:48:32.157Z,17.18
2023-05-21T22:51:02.005Z,17.64
2023-05-21T22:53:30.421Z,17.58
2023-05-21T22:55:58.730Z,17.30
2023-05-21T22:58:28.487Z,16.97
2023-05-21T23:00:56.778Z,17.21
2023-05-21T23:03:25.148Z,16.88
2023-05-21T23:05:53.720Z,16.76
2023-05-21T23:08:22.011Z,16.69
2023-05-21T23:10:50.241Z,16.71
2023-05-21T23:13:18.622Z,16.61
2023-05-21T23:15:48.642Z,16.55
2023-05-21T23:18:17.440Z,16.62
2023-05-21T23:20:46.049Z,16.64
2023-05-21T23:23:14.384Z,16.73
2023-05-21T23:25:42.683Z,16.98
2023-05-21T23:28:11.282Z,16.42
2023-05-21T23:30:39.788Z,16.67
2023-05-21T23:33:09.998Z,16.57
2023-05-21T23:35:38.360Z,16.67
2023-05-21T23:38:08.073Z,16.54
2023-05-21T23:40:37.383Z,16.52
2023-05-21T23:43:06.003Z,16.74
2023-05-21T23:45:34.352Z,16.54
2023-05-21T23:48:02.764Z,16.52
2023-05-21T23:50:32.495Z,16.47
2023-05-21T23:53:01.044Z,16.69
2023-05-21T23:55:29.317Z,16.40
2023-05-21T23:57:57.720Z,16.22
